Portada
METAR-TAF:

METAR-TAF

Aeroports :

Gloucester, Anglaterra

latitud: 51-54N, longitud: 002-10W, altitud: 29 m

Observació

L'informe es va fer fa 15 minuts, a les 09:20 UTC
Vent 8 kt del Sud/Sud-Oest
Temperatura 13°C
Humitat 77%
Pressió 1015 hPa
Visibilitat 10 km o més
Escasses núvols a una alçada de 3000 ft

METAR: EGBJ 060920Z 21008KT 9999 FEW030 13/09 Q1015

Hora: 10:35 (09:35 UTC)

Pronòstic

L'informe es va fer fa 1 hora i 32 minuts, a les 08:03 UTC
Pronòstic vàlid del 06 a les 09 UTC al 06 a les 18 UTC
Vent 7 kt del Sud-Oest
Visibilitat 10 km o més
Escasses núvols a una alçada de 3500 ft
Probabilitat 30% :
Temporalment
l' 06 a les 10 UTC al 06 a les 16 UTC
Visibilitat: 8000 m
xàfecs de pluja

TAF: EGBJ 060803Z 0609/0618 23007KT 9999 FEW035 PROB30 TEMPO 0610/0616 8000 -SHRA

Observacions i pronòstics meteorològics de més de 4000 aeroports (METAR i TAF).

Les estacions disponibles són els punts grocs i vermells al mapa.

Posi el ratolí al punt desitjat per veure el nom de l'estació.

Feu clic per veure les observacions i els pronòstics meteorològics.

Per canviar el mapa: feu clic els botons verds amb una creu de color negre per apropar; al botó verd amb un guió per allunyar la imatge; o en les fletxes verdes per a mapes adjacents.


METAR-TAF: